TOM79M EGBB-LEAL
Flight info
| Callsign | TOM79M |
|---|---|
| Flight time | 2h 17m |
| Altitude | 37000 |
| Route | CPT UN859 SOPIL DCT BALAN DCT LMG DCT PIMQO DCT AGN DCT ANETO DCT POSSY DCT XIMPE DCT RIMES N860 VLC |
| Aircraft | B38M/M-SDE1FGHILORVWXY/HB1 |
Departure
| Time | 2026-05-07 18:59 |
|---|---|
| Airport | Birmingham Airport (EGBB) |
Arrival
| Time | 2026-05-07 21:16 |
|---|---|
| Airport | Alicante-Elche Miguel Hernández Airport (LEAL) |
| Time | Latitude | Longitude | Altitude | Speed | Heading |
|---|---|---|---|---|---|
| 2026-05-07 18:29 | 52.45359 | -1.73609 | 326 ft | 0 kts | 146° |
| 2026-05-07 18:49 | 52.45373 | -1.73628 | 323 ft | 4 kts | 127° |
| 2026-05-07 18:49 | 52.45386 | -1.73664 | 323 ft | 4 kts | 136° |
| 2026-05-07 18:49 | 52.45403 | -1.73684 | 325 ft | 4 kts | 146° |
| 2026-05-07 18:50 | 52.45420 | -1.73700 | 323 ft | 4 kts | 193° |
| 2026-05-07 18:50 | 52.45433 | -1.73688 | 325 ft | 4 kts | 232° |
| 2026-05-07 18:50 | 52.45447 | -1.73654 | 323 ft | 4 kts | 236° |
| 2026-05-07 18:50 | 52.45453 | -1.73638 | 323 ft | 0 kts | 235° |
| 2026-05-07 18:51 | 52.45453 | -1.73639 | 323 ft | 0 kts | 235° |
| 2026-05-07 18:53 | 52.45437 | -1.73680 | 324 ft | 10 kts | 236° |
| 2026-05-07 18:54 | 52.45379 | -1.73820 | 326 ft | 18 kts | 235° |
| 2026-05-07 18:54 | 52.45319 | -1.73961 | 324 ft | 10 kts | 236° |
| 2026-05-07 18:54 | 52.45322 | -1.74077 | 325 ft | 12 kts | 299° |
| 2026-05-07 18:54 | 52.45362 | -1.74202 | 325 ft | 14 kts | 296° |
| 2026-05-07 18:55 | 52.45418 | -1.74386 | 324 ft | 23 kts | 296° |
| 2026-05-07 18:55 | 52.45493 | -1.74593 | 326 ft | 17 kts | 323° |
| 2026-05-07 18:55 | 52.45598 | -1.74713 | 322 ft | 21 kts | 325° |
| 2026-05-07 18:55 | 52.45734 | -1.74865 | 313 ft | 26 kts | 326° |
| 2026-05-07 18:56 | 52.45894 | -1.75041 | 309 ft | 29 kts | 327° |
| 2026-05-07 18:56 | 52.46068 | -1.75233 | 306 ft | 31 kts | 325° |
| 2026-05-07 18:56 | 52.46246 | -1.75431 | 306 ft | 32 kts | 326° |
| 2026-05-07 18:56 | 52.46430 | -1.75635 | 304 ft | 32 kts | 326° |
| 2026-05-07 18:57 | 52.46592 | -1.75814 | 308 ft | 14 kts | 326° |
| 2026-05-07 18:57 | 52.46631 | -1.75924 | 308 ft | 12 kts | 244° |
| 2026-05-07 18:57 | 52.46580 | -1.76053 | 307 ft | 15 kts | 227° |
| 2026-05-07 18:57 | 52.46518 | -1.76060 | 310 ft | 4 kts | 145° |
| 2026-05-07 18:58 | 52.46494 | -1.76033 | 311 ft | 8 kts | 145° |
| 2026-05-07 18:58 | 52.46255 | -1.75769 | 311 ft | 81 kts | 146° |
| 2026-05-07 18:58 | 52.45593 | -1.75031 | 325 ft | 147 kts | 146° |
| 2026-05-07 18:58 | 52.44627 | -1.73964 | 634 ft | 176 kts | 145° |
| 2026-05-07 18:59 | 52.43621 | -1.72851 | 1596 ft | 173 kts | 148° |
| 2026-05-07 18:59 | 52.42611 | -1.71732 | 2402 ft | 181 kts | 147° |
| 2026-05-07 18:59 | 52.41500 | -1.70534 | 2886 ft | 201 kts | 154° |
| 2026-05-07 18:59 | 52.40103 | -1.69788 | 3437 ft | 216 kts | 166° |
| 2026-05-07 19:00 | 52.38705 | -1.69191 | 4526 ft | 210 kts | 166° |
| 2026-05-07 19:00 | 52.37318 | -1.68295 | 5290 ft | 219 kts | 154° |
| 2026-05-07 19:00 | 52.35958 | -1.67165 | 6157 ft | 221 kts | 155° |
| 2026-05-07 19:00 | 52.34517 | -1.66107 | 6794 ft | 235 kts | 160° |
| 2026-05-07 19:01 | 52.32933 | -1.65067 | 7286 ft | 255 kts | 160° |
| 2026-05-07 19:01 | 52.31230 | -1.63939 | 7802 ft | 273 kts | 160° |
| 2026-05-07 19:01 | 52.29457 | -1.62761 | 8676 ft | 275 kts | 160° |
| 2026-05-07 19:01 | 52.27669 | -1.61571 | 9578 ft | 280 kts | 160° |
| 2026-05-07 19:02 | 52.25852 | -1.60360 | 10396 ft | 284 kts | 160° |
| 2026-05-07 19:02 | 52.24012 | -1.59268 | 11183 ft | 285 kts | 165° |
| 2026-05-07 19:02 | 52.22109 | -1.58308 | 12002 ft | 288 kts | 165° |
| 2026-05-07 19:02 | 52.20185 | -1.57321 | 12812 ft | 291 kts | 164° |
| 2026-05-07 19:03 | 52.18246 | -1.56326 | 13633 ft | 294 kts | 165° |
| 2026-05-07 19:03 | 52.16283 | -1.55343 | 14377 ft | 297 kts | 165° |
| 2026-05-07 19:03 | 52.14296 | -1.54344 | 15064 ft | 301 kts | 165° |
| 2026-05-07 19:03 | 52.12282 | -1.53330 | 15753 ft | 305 kts | 165° |
| 2026-05-07 19:04 | 52.10241 | -1.52301 | 16444 ft | 309 kts | 165° |
| 2026-05-07 19:04 | 52.08173 | -1.51261 | 17109 ft | 313 kts | 165° |
| 2026-05-07 19:04 | 52.06081 | -1.50209 | 17770 ft | 317 kts | 165° |
| 2026-05-07 19:04 | 52.03962 | -1.49143 | 18418 ft | 321 kts | 165° |
| 2026-05-07 19:05 | 52.01816 | -1.48067 | 18988 ft | 324 kts | 165° |
| 2026-05-07 19:05 | 51.99677 | -1.46995 | 19518 ft | 327 kts | 165° |
| 2026-05-07 19:05 | 51.97492 | -1.45899 | 20092 ft | 330 kts | 165° |
| 2026-05-07 19:05 | 51.95288 | -1.44797 | 20645 ft | 333 kts | 165° |
| 2026-05-07 19:06 | 51.93065 | -1.43685 | 21192 ft | 336 kts | 165° |
| 2026-05-07 19:06 | 51.88570 | -1.41442 | 22275 ft | 341 kts | 165° |
| 2026-05-07 19:06 | 51.86289 | -1.40305 | 22785 ft | 344 kts | 165° |
| 2026-05-07 19:07 | 51.83993 | -1.39163 | 23311 ft | 346 kts | 165° |
| 2026-05-07 19:07 | 51.81678 | -1.38011 | 23777 ft | 349 kts | 165° |
| 2026-05-07 19:07 | 51.79349 | -1.36854 | 24190 ft | 351 kts | 165° |
| 2026-05-07 19:07 | 51.77006 | -1.35692 | 24607 ft | 353 kts | 165° |
| 2026-05-07 19:08 | 51.74650 | -1.34524 | 25021 ft | 355 kts | 165° |
| 2026-05-07 19:08 | 51.72278 | -1.33349 | 25428 ft | 358 kts | 165° |
| 2026-05-07 19:08 | 51.69889 | -1.32168 | 25820 ft | 360 kts | 165° |
| 2026-05-07 19:08 | 51.67489 | -1.30982 | 26244 ft | 362 kts | 166° |
| 2026-05-07 19:09 | 51.65078 | -1.29793 | 26624 ft | 364 kts | 166° |
| 2026-05-07 19:09 | 51.62648 | -1.28595 | 26995 ft | 366 kts | 166° |
| 2026-05-07 19:09 | 51.60210 | -1.27394 | 27378 ft | 368 kts | 166° |
| 2026-05-07 19:09 | 51.57758 | -1.26188 | 27744 ft | 369 kts | 166° |
| 2026-05-07 19:10 | 51.55326 | -1.24994 | 28096 ft | 372 kts | 166° |
| 2026-05-07 19:10 | 51.52838 | -1.23772 | 28452 ft | 374 kts | 166° |
| 2026-05-07 19:10 | 51.50337 | -1.22546 | 28808 ft | 376 kts | 166° |
| 2026-05-07 19:10 | 51.47861 | -1.21022 | 28876 ft | 388 kts | 157° |
| 2026-05-07 19:11 | 51.42845 | -1.17311 | 28925 ft | 408 kts | 158° |
| 2026-05-07 19:11 | 51.37579 | -1.13440 | 28944 ft | 428 kts | 158° |
| 2026-05-07 19:12 | 51.34842 | -1.11431 | 29120 ft | 434 kts | 158° |
| 2026-05-07 19:12 | 51.32100 | -1.09421 | 29507 ft | 435 kts | 158° |
| 2026-05-07 19:12 | 51.29334 | -1.07396 | 29804 ft | 437 kts | 158° |
| 2026-05-07 19:12 | 51.26559 | -1.05367 | 30135 ft | 439 kts | 158° |
| 2026-05-07 19:13 | 51.23774 | -1.03333 | 30404 ft | 441 kts | 158° |
| 2026-05-07 19:13 | 51.20973 | -1.01290 | 30673 ft | 443 kts | 158° |
| 2026-05-07 19:13 | 51.18160 | -0.99242 | 30937 ft | 445 kts | 158° |
| 2026-05-07 19:13 | 51.15332 | -0.97186 | 31198 ft | 447 kts | 158° |
| 2026-05-07 19:14 | 51.12527 | -0.95148 | 31461 ft | 449 kts | 158° |
| 2026-05-07 19:14 | 51.09681 | -0.93084 | 31731 ft | 450 kts | 158° |
| 2026-05-07 19:14 | 51.06817 | -0.91009 | 32009 ft | 451 kts | 158° |
| 2026-05-07 19:14 | 51.03959 | -0.88942 | 32352 ft | 451 kts | 158° |
| 2026-05-07 19:15 | 51.01108 | -0.86883 | 32714 ft | 450 kts | 158° |
| 2026-05-07 19:15 | 50.98249 | -0.84821 | 33068 ft | 449 kts | 158° |
| 2026-05-07 19:15 | 50.95402 | -0.82770 | 33416 ft | 448 kts | 158° |
| 2026-05-07 19:15 | 50.92552 | -0.80720 | 33750 ft | 448 kts | 158° |
| 2026-05-07 19:16 | 50.89756 | -0.78711 | 34087 ft | 447 kts | 158° |
| 2026-05-07 19:16 | 50.86923 | -0.76676 | 34361 ft | 447 kts | 158° |
| 2026-05-07 19:16 | 50.84187 | -0.74316 | 34600 ft | 450 kts | 149° |
| 2026-05-07 19:16 | 50.81554 | -0.71606 | 34829 ft | 450 kts | 150° |
| 2026-05-07 19:17 | 50.78909 | -0.68925 | 35043 ft | 451 kts | 150° |
| 2026-05-07 19:17 | 50.76300 | -0.66274 | 35275 ft | 451 kts | 150° |
| 2026-05-07 19:17 | 50.73658 | -0.63591 | 35509 ft | 451 kts | 150° |
| 2026-05-07 19:17 | 50.71010 | -0.60905 | 35737 ft | 451 kts | 150° |
| 2026-05-07 19:18 | 50.68366 | -0.58225 | 35973 ft | 451 kts | 150° |
| 2026-05-07 19:18 | 50.65714 | -0.55542 | 36179 ft | 452 kts | 150° |
| 2026-05-07 19:18 | 50.63061 | -0.52862 | 36394 ft | 452 kts | 150° |
| 2026-05-07 19:18 | 50.60413 | -0.50190 | 36604 ft | 452 kts | 150° |
| 2026-05-07 19:19 | 50.57766 | -0.47522 | 36801 ft | 452 kts | 150° |
| 2026-05-07 19:19 | 50.55144 | -0.44884 | 36990 ft | 453 kts | 150° |
| 2026-05-07 19:19 | 50.49821 | -0.39538 | 37054 ft | 453 kts | 150° |
| 2026-05-07 19:20 | 50.44508 | -0.34216 | 37052 ft | 452 kts | 150° |
| 2026-05-07 19:20 | 50.39231 | -0.28945 | 37049 ft | 452 kts | 150° |
| 2026-05-07 19:21 | 50.33981 | -0.23714 | 37104 ft | 432 kts | 150° |
| 2026-05-07 19:21 | 50.31491 | -0.21239 | 37103 ft | 415 kts | 150° |
| 2026-05-07 19:21 | 50.29095 | -0.18859 | 37098 ft | 400 kts | 150° |
| 2026-05-07 19:22 | 50.26820 | -0.16603 | 37100 ft | 384 kts | 151° |
| 2026-05-07 19:22 | 50.24611 | -0.14415 | 37091 ft | 368 kts | 151° |
| 2026-05-07 19:22 | 50.20390 | -0.10239 | 37050 ft | 354 kts | 151° |
| 2026-05-07 19:23 | 50.16244 | -0.06147 | 37041 ft | 351 kts | 151° |
| 2026-05-07 19:23 | 50.12108 | -0.02071 | 37054 ft | 352 kts | 151° |
| 2026-05-07 19:24 | 50.09978 | -0.00178 | 36968 ft | 351 kts | 164° |
| 2026-05-07 19:24 | 50.07675 | 0.00785 | 36979 ft | 344 kts | 172° |
| 2026-05-07 19:24 | 50.05364 | 0.01724 | 37093 ft | 342 kts | 168° |
| 2026-05-07 19:24 | 50.03065 | 0.02689 | 37050 ft | 342 kts | 168° |
| 2026-05-07 19:25 | 49.98462 | 0.04618 | 37045 ft | 342 kts | 168° |
| 2026-05-07 19:25 | 49.93876 | 0.06544 | 37041 ft | 341 kts | 168° |
| 2026-05-07 19:26 | 49.89329 | 0.08449 | 37035 ft | 340 kts | 168° |
| 2026-05-07 19:26 | 49.84757 | 0.10360 | 37041 ft | 340 kts | 168° |
| 2026-05-07 19:27 | 49.80186 | 0.12267 | 37032 ft | 339 kts | 168° |
| 2026-05-07 19:27 | 49.75638 | 0.14161 | 37030 ft | 338 kts | 168° |
| 2026-05-07 19:28 | 49.71133 | 0.16033 | 37014 ft | 336 kts | 168° |
| 2026-05-07 19:28 | 49.66619 | 0.17905 | 37016 ft | 334 kts | 168° |
| 2026-05-07 19:29 | 49.62123 | 0.19766 | 37009 ft | 332 kts | 168° |
| 2026-05-07 19:29 | 49.57693 | 0.21597 | 37013 ft | 330 kts | 168° |
| 2026-05-07 19:30 | 49.53211 | 0.23445 | 36733 ft | 338 kts | 168° |
| 2026-05-07 19:30 | 49.50941 | 0.24380 | 36503 ft | 346 kts | 168° |
| 2026-05-07 19:30 | 49.48574 | 0.25350 | 36269 ft | 354 kts | 168° |
| 2026-05-07 19:31 | 49.46153 | 0.26347 | 36037 ft | 364 kts | 168° |
| 2026-05-07 19:31 | 49.43675 | 0.27366 | 35797 ft | 374 kts | 168° |
| 2026-05-07 19:31 | 49.41125 | 0.28412 | 35548 ft | 384 kts | 168° |
| 2026-05-07 19:31 | 49.38540 | 0.29471 | 35302 ft | 394 kts | 168° |
| 2026-05-07 19:32 | 49.35847 | 0.30573 | 35053 ft | 404 kts | 168° |
| 2026-05-07 19:32 | 49.33110 | 0.31692 | 34995 ft | 408 kts | 168° |
| 2026-05-07 19:32 | 49.27627 | 0.33930 | 35023 ft | 412 kts | 168° |
| 2026-05-07 19:33 | 49.22036 | 0.36206 | 35025 ft | 416 kts | 168° |
| 2026-05-07 19:33 | 49.16419 | 0.38488 | 35023 ft | 419 kts | 168° |
| 2026-05-07 19:34 | 49.10756 | 0.40783 | 35024 ft | 422 kts | 168° |
| 2026-05-07 19:34 | 49.07938 | 0.41861 | 39923 ft | 426 kts | 169° |
| 2026-05-07 19:34 | 49.05010 | 0.43063 | 39230 ft | 443 kts | 167° |
| 2026-05-07 19:35 | 49.02441 | 0.44126 | 38953 ft | 448 kts | 167° |
| 2026-05-07 19:35 | 48.99410 | 0.45359 | 38732 ft | 452 kts | 168° |
| 2026-05-07 19:35 | 48.96349 | 0.46595 | 38452 ft | 456 kts | 168° |
| 2026-05-07 19:36 | 48.93297 | 0.47823 | 38170 ft | 460 kts | 168° |
| 2026-05-07 19:36 | 48.90181 | 0.49074 | 37876 ft | 462 kts | 168° |
| 2026-05-07 19:36 | 48.87117 | 0.50304 | 37605 ft | 450 kts | 168° |
| 2026-05-07 19:36 | 48.84098 | 0.51513 | 37339 ft | 446 kts | 168° |
| 2026-05-07 19:37 | 48.81100 | 0.52712 | 37091 ft | 445 kts | 168° |
| 2026-05-07 19:37 | 48.78106 | 0.53908 | 36999 ft | 444 kts | 168° |
| 2026-05-07 19:37 | 48.72099 | 0.56303 | 37022 ft | 446 kts | 168° |
| 2026-05-07 19:38 | 48.66130 | 0.58678 | 37018 ft | 446 kts | 168° |
| 2026-05-07 19:38 | 48.60120 | 0.61063 | 37018 ft | 446 kts | 168° |
| 2026-05-07 19:39 | 48.54144 | 0.63428 | 37012 ft | 445 kts | 168° |
| 2026-05-07 19:39 | 48.49152 | 0.65400 | 37012 ft | 445 kts | 168° |
| 2026-05-07 19:40 | 48.43145 | 0.67768 | 37008 ft | 445 kts | 168° |
| 2026-05-07 19:40 | 48.37139 | 0.70129 | 37015 ft | 445 kts | 168° |
| 2026-05-07 19:41 | 48.31173 | 0.72469 | 37008 ft | 445 kts | 168° |
| 2026-05-07 19:41 | 48.25141 | 0.74828 | 37005 ft | 445 kts | 168° |
| 2026-05-07 19:42 | 48.19174 | 0.77158 | 37004 ft | 445 kts | 168° |
| 2026-05-07 19:42 | 48.13169 | 0.79495 | 37005 ft | 445 kts | 168° |
| 2026-05-07 19:43 | 48.07191 | 0.81817 | 37003 ft | 445 kts | 168° |
| 2026-05-07 19:43 | 48.01188 | 0.84144 | 37003 ft | 445 kts | 168° |
| 2026-05-07 19:44 | 47.95179 | 0.86466 | 37002 ft | 445 kts | 168° |
| 2026-05-07 19:44 | 47.89212 | 0.88767 | 37001 ft | 445 kts | 169° |
| 2026-05-07 19:45 | 47.83204 | 0.91078 | 37005 ft | 445 kts | 169° |
| 2026-05-07 19:45 | 47.77238 | 0.93367 | 37000 ft | 445 kts | 169° |
| 2026-05-07 19:46 | 47.71229 | 0.95669 | 36999 ft | 445 kts | 169° |
| 2026-05-07 19:46 | 47.65230 | 0.97959 | 36993 ft | 445 kts | 169° |
| 2026-05-07 19:47 | 47.59262 | 1.00234 | 36997 ft | 445 kts | 169° |
| 2026-05-07 19:47 | 47.53259 | 1.02516 | 36995 ft | 445 kts | 169° |
| 2026-05-07 19:48 | 47.47264 | 1.04790 | 36994 ft | 445 kts | 169° |
| 2026-05-07 19:48 | 47.41203 | 1.06326 | 36995 ft | 435 kts | 185° |
| 2026-05-07 19:49 | 47.35149 | 1.06232 | 36996 ft | 438 kts | 183° |
| 2026-05-07 19:49 | 47.29031 | 1.06115 | 36997 ft | 438 kts | 184° |
| 2026-05-07 19:50 | 47.22975 | 1.05975 | 36993 ft | 438 kts | 184° |
| 2026-05-07 19:50 | 47.16883 | 1.05834 | 36994 ft | 437 kts | 184° |
| 2026-05-07 19:51 | 47.10776 | 1.05691 | 37000 ft | 438 kts | 184° |
| 2026-05-07 19:51 | 47.04678 | 1.05549 | 36999 ft | 438 kts | 184° |
| 2026-05-07 19:52 | 46.98613 | 1.05304 | 36998 ft | 438 kts | 185° |
| 2026-05-07 19:52 | 46.92518 | 1.05045 | 36991 ft | 438 kts | 184° |
| 2026-05-07 19:53 | 46.86459 | 1.04789 | 36994 ft | 437 kts | 184° |
| 2026-05-07 19:53 | 46.80361 | 1.04533 | 36991 ft | 437 kts | 185° |
| 2026-05-07 19:54 | 46.74261 | 1.04278 | 36990 ft | 437 kts | 185° |
| 2026-05-07 19:54 | 46.68210 | 1.04025 | 36988 ft | 437 kts | 184° |
| 2026-05-07 19:55 | 46.62121 | 1.03771 | 36989 ft | 437 kts | 184° |
| 2026-05-07 19:55 | 46.56061 | 1.03519 | 36986 ft | 437 kts | 184° |
| 2026-05-07 19:56 | 46.49974 | 1.03349 | 36986 ft | 437 kts | 183° |
| 2026-05-07 19:56 | 46.43877 | 1.03289 | 36985 ft | 437 kts | 183° |
| 2026-05-07 19:57 | 46.37784 | 1.03217 | 36984 ft | 437 kts | 183° |
| 2026-05-07 19:57 | 46.31733 | 1.03146 | 36986 ft | 436 kts | 183° |
| 2026-05-07 19:58 | 46.25657 | 1.03074 | 36978 ft | 436 kts | 183° |
| 2026-05-07 19:58 | 46.19583 | 1.03002 | 36978 ft | 436 kts | 183° |
| 2026-05-07 19:59 | 46.13505 | 1.02931 | 36980 ft | 436 kts | 183° |
| 2026-05-07 19:59 | 46.07468 | 1.02860 | 36972 ft | 436 kts | 183° |
| 2026-05-07 20:00 | 46.01393 | 1.02788 | 36971 ft | 436 kts | 183° |
| 2026-05-07 20:00 | 45.95312 | 1.02717 | 36968 ft | 436 kts | 183° |
| 2026-05-07 20:01 | 45.89238 | 1.02646 | 36958 ft | 436 kts | 183° |
| 2026-05-07 20:01 | 45.83165 | 1.02575 | 36967 ft | 436 kts | 183° |
| 2026-05-07 20:02 | 45.80172 | 1.02902 | 36963 ft | 439 kts | 172° |
| 2026-05-07 20:02 | 45.77163 | 1.03716 | 36965 ft | 440 kts | 173° |
| 2026-05-07 20:02 | 45.71118 | 1.05259 | 36971 ft | 440 kts | 173° |
| 2026-05-07 20:03 | 45.65094 | 1.06806 | 36977 ft | 440 kts | 173° |
| 2026-05-07 20:03 | 45.59059 | 1.08353 | 36971 ft | 440 kts | 173° |
| 2026-05-07 20:04 | 45.53064 | 1.09887 | 36976 ft | 440 kts | 173° |
| 2026-05-07 20:04 | 45.47020 | 1.11430 | 36972 ft | 440 kts | 173° |
| 2026-05-07 20:05 | 45.40990 | 1.12965 | 36975 ft | 440 kts | 173° |
| 2026-05-07 20:05 | 45.34961 | 1.14498 | 36971 ft | 440 kts | 173° |
| 2026-05-07 20:06 | 45.28956 | 1.16021 | 36972 ft | 440 kts | 173° |
| 2026-05-07 20:06 | 45.22913 | 1.17550 | 36972 ft | 440 kts | 173° |
| 2026-05-07 20:07 | 45.16892 | 1.18957 | 36960 ft | 437 kts | 181° |
| 2026-05-07 20:07 | 45.13893 | 1.18618 | 36980 ft | 431 kts | 192° |
| 2026-05-07 20:07 | 45.10921 | 1.17923 | 36962 ft | 434 kts | 191° |
| 2026-05-07 20:08 | 45.04960 | 1.16482 | 36970 ft | 434 kts | 192° |
| 2026-05-07 20:08 | 44.99006 | 1.14971 | 36971 ft | 434 kts | 192° |
| 2026-05-07 20:09 | 44.93090 | 1.13458 | 36964 ft | 434 kts | 192° |
| 2026-05-07 20:10 | 44.84154 | 1.11179 | 36967 ft | 435 kts | 192° |
| 2026-05-07 20:10 | 44.78219 | 1.09668 | 36969 ft | 435 kts | 192° |
| 2026-05-07 20:11 | 44.72247 | 1.08152 | 36968 ft | 435 kts | 192° |
| 2026-05-07 20:11 | 44.66316 | 1.06648 | 36963 ft | 435 kts | 192° |
| 2026-05-07 20:12 | 44.60345 | 1.05138 | 36966 ft | 435 kts | 192° |
| 2026-05-07 20:12 | 44.54396 | 1.03637 | 36966 ft | 435 kts | 192° |
| 2026-05-07 20:13 | 44.48424 | 1.02133 | 36963 ft | 436 kts | 192° |
| 2026-05-07 20:13 | 44.42436 | 1.00628 | 36959 ft | 436 kts | 192° |
| 2026-05-07 20:14 | 44.36490 | 0.99137 | 36958 ft | 436 kts | 192° |
| 2026-05-07 20:14 | 44.30490 | 0.97635 | 36963 ft | 436 kts | 192° |
| 2026-05-07 20:15 | 44.24543 | 0.96149 | 36959 ft | 436 kts | 192° |
| 2026-05-07 20:15 | 44.18555 | 0.94656 | 36959 ft | 436 kts | 192° |
| 2026-05-07 20:16 | 44.12562 | 0.93166 | 36960 ft | 436 kts | 192° |
| 2026-05-07 20:16 | 44.06619 | 0.91691 | 36953 ft | 436 kts | 192° |
| 2026-05-07 20:17 | 44.00626 | 0.90206 | 36954 ft | 436 kts | 192° |
| 2026-05-07 20:17 | 43.94651 | 0.88728 | 36951 ft | 435 kts | 192° |
| 2026-05-07 20:18 | 43.88726 | 0.87243 | 36946 ft | 434 kts | 193° |
| 2026-05-07 20:18 | 43.82784 | 0.85641 | 36949 ft | 434 kts | 193° |
| 2026-05-07 20:19 | 43.76847 | 0.84053 | 36948 ft | 434 kts | 193° |
| 2026-05-07 20:19 | 43.70948 | 0.82478 | 36944 ft | 434 kts | 193° |
| 2026-05-07 20:20 | 43.65017 | 0.80899 | 36943 ft | 434 kts | 193° |
| 2026-05-07 20:20 | 43.59076 | 0.79321 | 36948 ft | 434 kts | 193° |
| 2026-05-07 20:21 | 43.53176 | 0.77756 | 36950 ft | 434 kts | 193° |
| 2026-05-07 20:21 | 43.47226 | 0.76182 | 36957 ft | 434 kts | 193° |
| 2026-05-07 20:22 | 43.41291 | 0.74614 | 36950 ft | 434 kts | 193° |
| 2026-05-07 20:22 | 43.35353 | 0.73049 | 36952 ft | 435 kts | 193° |
| 2026-05-07 20:23 | 43.29403 | 0.71484 | 36946 ft | 435 kts | 193° |
| 2026-05-07 20:23 | 43.23446 | 0.69920 | 36958 ft | 435 kts | 193° |
| 2026-05-07 20:24 | 43.17528 | 0.68369 | 36960 ft | 435 kts | 193° |
| 2026-05-07 20:24 | 43.11567 | 0.66810 | 36963 ft | 435 kts | 193° |
| 2026-05-07 20:25 | 43.05649 | 0.65266 | 36970 ft | 435 kts | 193° |
| 2026-05-07 20:25 | 42.99695 | 0.63714 | 36976 ft | 435 kts | 193° |
| 2026-05-07 20:26 | 42.93739 | 0.62167 | 36973 ft | 434 kts | 193° |
| 2026-05-07 20:26 | 42.88804 | 0.60885 | 36978 ft | 435 kts | 193° |
| 2026-05-07 20:27 | 42.82884 | 0.59353 | 36989 ft | 434 kts | 193° |
| 2026-05-07 20:27 | 42.76947 | 0.57818 | 36984 ft | 434 kts | 193° |
| 2026-05-07 20:28 | 42.71008 | 0.56282 | 36995 ft | 433 kts | 194° |
| 2026-05-07 20:28 | 42.68162 | 0.55045 | 37004 ft | 427 kts | 208° |
| 2026-05-07 20:28 | 42.65463 | 0.53311 | 37003 ft | 429 kts | 206° |
| 2026-05-07 20:29 | 42.60071 | 0.49917 | 37010 ft | 429 kts | 207° |
| 2026-05-07 20:29 | 42.54650 | 0.46457 | 37015 ft | 430 kts | 207° |
| 2026-05-07 20:30 | 42.49239 | 0.43003 | 37017 ft | 430 kts | 207° |
| 2026-05-07 20:30 | 42.43850 | 0.39569 | 37022 ft | 430 kts | 207° |
| 2026-05-07 20:31 | 42.38421 | 0.36117 | 37007 ft | 430 kts | 207° |
| 2026-05-07 20:31 | 42.32980 | 0.32663 | 37007 ft | 431 kts | 207° |
| 2026-05-07 20:32 | 42.27550 | 0.29223 | 36996 ft | 431 kts | 207° |
| 2026-05-07 20:32 | 42.22135 | 0.25799 | 37001 ft | 432 kts | 207° |
| 2026-05-07 20:33 | 42.16681 | 0.22356 | 36995 ft | 432 kts | 207° |
| 2026-05-07 20:33 | 42.11247 | 0.18933 | 36993 ft | 433 kts | 207° |
| 2026-05-07 20:34 | 42.05671 | 0.15836 | 36979 ft | 437 kts | 193° |
| 2026-05-07 20:34 | 41.99600 | 0.14790 | 36986 ft | 441 kts | 190° |
| 2026-05-07 20:35 | 41.93497 | 0.13824 | 36990 ft | 441 kts | 190° |
| 2026-05-07 20:35 | 41.87427 | 0.12909 | 36990 ft | 442 kts | 190° |
| 2026-05-07 20:36 | 41.81303 | 0.11993 | 36989 ft | 442 kts | 190° |
| 2026-05-07 20:36 | 41.75182 | 0.11079 | 36979 ft | 442 kts | 190° |
| 2026-05-07 20:37 | 41.69085 | 0.10171 | 36988 ft | 443 kts | 190° |
| 2026-05-07 20:37 | 41.62946 | 0.09258 | 36983 ft | 443 kts | 190° |
| 2026-05-07 20:38 | 41.56809 | 0.08348 | 36977 ft | 444 kts | 190° |
| 2026-05-07 20:38 | 41.50667 | 0.07438 | 36977 ft | 444 kts | 190° |
| 2026-05-07 20:39 | 41.44558 | 0.06535 | 36982 ft | 444 kts | 190° |
| 2026-05-07 20:39 | 41.38391 | 0.05625 | 36980 ft | 444 kts | 191° |
| 2026-05-07 20:40 | 41.32234 | 0.04718 | 36976 ft | 445 kts | 191° |
| 2026-05-07 20:40 | 41.26113 | 0.03818 | 36978 ft | 446 kts | 191° |
| 2026-05-07 20:41 | 41.19930 | 0.02911 | 36975 ft | 446 kts | 191° |
| 2026-05-07 20:41 | 41.13745 | 0.02006 | 36982 ft | 447 kts | 191° |
| 2026-05-07 20:42 | 41.07593 | 0.01107 | 36979 ft | 447 kts | 191° |
| 2026-05-07 20:42 | 41.01394 | 0.00203 | 36979 ft | 447 kts | 191° |
| 2026-05-07 20:43 | 40.95233 | -0.00693 | 36980 ft | 448 kts | 191° |
| 2026-05-07 20:43 | 40.89019 | -0.01597 | 36978 ft | 448 kts | 191° |
| 2026-05-07 20:44 | 40.82803 | -0.02498 | 36966 ft | 448 kts | 192° |
| 2026-05-07 20:44 | 40.76636 | -0.03391 | 36982 ft | 449 kts | 192° |
| 2026-05-07 20:45 | 40.70412 | -0.04290 | 36978 ft | 449 kts | 192° |
| 2026-05-07 20:45 | 40.64197 | -0.05186 | 36984 ft | 450 kts | 192° |
| 2026-05-07 20:46 | 40.57960 | -0.06083 | 36987 ft | 450 kts | 192° |
| 2026-05-07 20:46 | 40.51997 | -0.07926 | 36983 ft | 441 kts | 202° |
| 2026-05-07 20:47 | 40.46097 | -0.10244 | 36967 ft | 442 kts | 202° |
| 2026-05-07 20:47 | 40.40234 | -0.12563 | 36974 ft | 442 kts | 203° |
| 2026-05-07 20:48 | 40.34339 | -0.14892 | 36965 ft | 442 kts | 203° |
| 2026-05-07 20:48 | 40.28441 | -0.17218 | 36960 ft | 442 kts | 203° |
| 2026-05-07 20:49 | 40.22562 | -0.19532 | 36810 ft | 445 kts | 204° |
| 2026-05-07 20:49 | 40.19613 | -0.20690 | 36245 ft | 440 kts | 204° |
| 2026-05-07 20:49 | 40.16693 | -0.21838 | 35757 ft | 436 kts | 204° |
| 2026-05-07 20:49 | 40.13783 | -0.22980 | 35212 ft | 433 kts | 205° |
| 2026-05-07 20:50 | 40.10938 | -0.24096 | 34718 ft | 430 kts | 205° |
| 2026-05-07 20:50 | 40.08073 | -0.25217 | 34211 ft | 428 kts | 205° |
| 2026-05-07 20:50 | 40.05225 | -0.26332 | 33651 ft | 425 kts | 206° |
| 2026-05-07 20:50 | 40.02394 | -0.27438 | 33086 ft | 422 kts | 206° |
| 2026-05-07 20:51 | 39.99622 | -0.28521 | 32603 ft | 418 kts | 206° |
| 2026-05-07 20:51 | 39.96836 | -0.29609 | 32112 ft | 415 kts | 206° |
| 2026-05-07 20:51 | 39.94074 | -0.30686 | 31621 ft | 412 kts | 206° |
| 2026-05-07 20:51 | 39.91331 | -0.31754 | 31150 ft | 409 kts | 207° |
| 2026-05-07 20:52 | 39.88614 | -0.32812 | 30667 ft | 407 kts | 207° |
| 2026-05-07 20:52 | 39.85903 | -0.33866 | 30178 ft | 404 kts | 207° |
| 2026-05-07 20:52 | 39.83251 | -0.34898 | 29676 ft | 401 kts | 206° |
| 2026-05-07 20:52 | 39.80595 | -0.35928 | 29170 ft | 397 kts | 206° |
| 2026-05-07 20:53 | 39.77951 | -0.36954 | 28714 ft | 393 kts | 206° |
| 2026-05-07 20:53 | 39.75340 | -0.37967 | 28287 ft | 390 kts | 205° |
| 2026-05-07 20:53 | 39.72746 | -0.38971 | 27848 ft | 387 kts | 205° |
| 2026-05-07 20:53 | 39.70164 | -0.39970 | 27415 ft | 384 kts | 205° |
| 2026-05-07 20:54 | 39.67647 | -0.40945 | 27006 ft | 381 kts | 205° |
| 2026-05-07 20:54 | 39.65120 | -0.41922 | 26581 ft | 378 kts | 204° |
| 2026-05-07 20:54 | 39.62606 | -0.42893 | 26163 ft | 375 kts | 204° |
| 2026-05-07 20:54 | 39.60114 | -0.43855 | 25766 ft | 372 kts | 204° |
| 2026-05-07 20:55 | 39.57642 | -0.44809 | 25366 ft | 369 kts | 203° |
| 2026-05-07 20:55 | 39.55186 | -0.45756 | 24970 ft | 367 kts | 203° |
| 2026-05-07 20:55 | 39.52746 | -0.46696 | 24585 ft | 364 kts | 202° |
| 2026-05-07 20:55 | 39.50346 | -0.47620 | 24207 ft | 362 kts | 202° |
| 2026-05-07 20:56 | 39.47920 | -0.48520 | 23781 ft | 362 kts | 201° |
| 2026-05-07 20:56 | 39.45484 | -0.49383 | 23341 ft | 362 kts | 201° |
| 2026-05-07 20:56 | 39.43067 | -0.50245 | 22947 ft | 359 kts | 201° |
| 2026-05-07 20:56 | 39.40671 | -0.51100 | 22581 ft | 355 kts | 200° |
| 2026-05-07 20:57 | 39.38293 | -0.51948 | 22212 ft | 353 kts | 200° |
| 2026-05-07 20:57 | 39.35931 | -0.52791 | 21853 ft | 352 kts | 200° |
| 2026-05-07 20:57 | 39.33569 | -0.53633 | 21487 ft | 351 kts | 200° |
| 2026-05-07 20:57 | 39.31255 | -0.54457 | 21133 ft | 349 kts | 200° |
| 2026-05-07 20:58 | 39.28919 | -0.55313 | 20752 ft | 347 kts | 203° |
| 2026-05-07 20:58 | 39.26644 | -0.56400 | 20186 ft | 350 kts | 204° |
| 2026-05-07 20:58 | 39.24357 | -0.57487 | 19769 ft | 349 kts | 204° |
| 2026-05-07 20:58 | 39.22076 | -0.58555 | 19397 ft | 347 kts | 203° |
| 2026-05-07 20:59 | 39.19804 | -0.59609 | 19038 ft | 346 kts | 202° |
| 2026-05-07 20:59 | 39.17543 | -0.60654 | 18676 ft | 344 kts | 202° |
| 2026-05-07 20:59 | 39.15297 | -0.61691 | 18318 ft | 342 kts | 202° |
| 2026-05-07 20:59 | 39.13087 | -0.62710 | 17920 ft | 340 kts | 202° |
| 2026-05-07 21:00 | 39.10856 | -0.63737 | 17546 ft | 338 kts | 202° |
| 2026-05-07 21:00 | 39.08647 | -0.64755 | 17176 ft | 335 kts | 202° |
| 2026-05-07 21:00 | 39.06452 | -0.65764 | 16832 ft | 333 kts | 202° |
| 2026-05-07 21:00 | 39.04274 | -0.66765 | 16479 ft | 331 kts | 202° |
| 2026-05-07 21:01 | 39.02107 | -0.67760 | 16131 ft | 330 kts | 202° |
| 2026-05-07 21:01 | 38.99950 | -0.68750 | 15784 ft | 328 kts | 202° |
| 2026-05-07 21:01 | 38.97800 | -0.69737 | 15440 ft | 327 kts | 202° |
| 2026-05-07 21:01 | 38.95686 | -0.70706 | 15116 ft | 326 kts | 202° |
| 2026-05-07 21:02 | 38.93547 | -0.71685 | 14777 ft | 325 kts | 202° |
| 2026-05-07 21:02 | 38.91422 | -0.72658 | 14438 ft | 324 kts | 201° |
| 2026-05-07 21:02 | 38.89300 | -0.73629 | 14103 ft | 323 kts | 201° |
| 2026-05-07 21:02 | 38.87198 | -0.74590 | 13761 ft | 322 kts | 201° |
| 2026-05-07 21:03 | 38.85085 | -0.75555 | 13375 ft | 321 kts | 201° |
| 2026-05-07 21:03 | 38.82978 | -0.76517 | 13015 ft | 319 kts | 201° |
| 2026-05-07 21:03 | 38.80894 | -0.77469 | 12677 ft | 316 kts | 201° |
| 2026-05-07 21:03 | 38.78848 | -0.78402 | 12355 ft | 315 kts | 201° |
| 2026-05-07 21:04 | 38.76789 | -0.79341 | 12021 ft | 313 kts | 201° |
| 2026-05-07 21:04 | 38.74735 | -0.80276 | 11698 ft | 312 kts | 201° |
| 2026-05-07 21:04 | 38.72693 | -0.81206 | 11358 ft | 311 kts | 201° |
| 2026-05-07 21:04 | 38.70651 | -0.82135 | 11030 ft | 309 kts | 201° |
| 2026-05-07 21:05 | 38.68625 | -0.83056 | 10701 ft | 308 kts | 201° |
| 2026-05-07 21:05 | 38.66602 | -0.83975 | 10389 ft | 306 kts | 200° |
| 2026-05-07 21:05 | 38.64641 | -0.84866 | 10250 ft | 299 kts | 200° |
| 2026-05-07 21:05 | 38.62700 | -0.85747 | 10111 ft | 291 kts | 200° |
| 2026-05-07 21:06 | 38.60811 | -0.86604 | 9879 ft | 286 kts | 200° |
| 2026-05-07 21:06 | 38.58930 | -0.87457 | 9538 ft | 286 kts | 200° |
| 2026-05-07 21:06 | 38.57061 | -0.88303 | 9214 ft | 284 kts | 200° |
| 2026-05-07 21:06 | 38.55204 | -0.89145 | 8898 ft | 282 kts | 200° |
| 2026-05-07 21:07 | 38.53377 | -0.89972 | 8593 ft | 280 kts | 200° |
| 2026-05-07 21:07 | 38.51600 | -0.90775 | 8314 ft | 279 kts | 200° |
| 2026-05-07 21:07 | 38.49771 | -0.91603 | 8020 ft | 278 kts | 200° |
| 2026-05-07 21:07 | 38.47950 | -0.92426 | 7710 ft | 277 kts | 200° |
| 2026-05-07 21:08 | 38.46153 | -0.93237 | 7417 ft | 276 kts | 200° |
| 2026-05-07 21:08 | 38.44340 | -0.94056 | 7120 ft | 275 kts | 200° |
| 2026-05-07 21:08 | 38.42533 | -0.94871 | 6819 ft | 274 kts | 200° |
| 2026-05-07 21:08 | 38.40735 | -0.95682 | 6514 ft | 273 kts | 200° |
| 2026-05-07 21:09 | 38.38949 | -0.96482 | 6305 ft | 268 kts | 198° |
| 2026-05-07 21:09 | 38.37166 | -0.96923 | 6136 ft | 261 kts | 179° |
| 2026-05-07 21:09 | 38.35468 | -0.96325 | 5974 ft | 251 kts | 146° |
| 2026-05-07 21:09 | 38.34176 | -0.94915 | 5901 ft | 239 kts | 129° |
| 2026-05-07 21:10 | 38.33431 | -0.93055 | 5620 ft | 236 kts | 103° |
| 2026-05-07 21:10 | 38.33118 | -0.90998 | 5344 ft | 235 kts | 99° |
| 2026-05-07 21:10 | 38.32838 | -0.88947 | 5060 ft | 235 kts | 99° |
| 2026-05-07 21:10 | 38.32552 | -0.86920 | 4751 ft | 236 kts | 100° |
| 2026-05-07 21:11 | 38.32258 | -0.84857 | 4405 ft | 238 kts | 99° |
| 2026-05-07 21:11 | 38.31972 | -0.82790 | 4134 ft | 236 kts | 99° |
| 2026-05-07 21:11 | 38.31397 | -0.78649 | 3480 ft | 238 kts | 99° |
| 2026-05-07 21:12 | 38.31113 | -0.76612 | 3200 ft | 225 kts | 99° |
| 2026-05-07 21:12 | 38.30850 | -0.74725 | 2883 ft | 209 kts | 99° |
| 2026-05-07 21:12 | 38.30605 | -0.72964 | 2596 ft | 195 kts | 99° |
| 2026-05-07 21:12 | 38.30377 | -0.71328 | 2355 ft | 177 kts | 99° |
| 2026-05-07 21:13 | 38.30175 | -0.69871 | 2131 ft | 157 kts | 99° |
| 2026-05-07 21:13 | 38.29993 | -0.68562 | 1908 ft | 149 kts | 99° |
| 2026-05-07 21:13 | 38.29813 | -0.67268 | 1716 ft | 148 kts | 99° |
| 2026-05-07 21:13 | 38.29633 | -0.65976 | 1497 ft | 148 kts | 98° |
| 2026-05-07 21:14 | 38.29451 | -0.64682 | 1320 ft | 148 kts | 99° |
| 2026-05-07 21:14 | 38.29261 | -0.63391 | 1163 ft | 149 kts | 99° |
| 2026-05-07 21:14 | 38.29077 | -0.62095 | 933 ft | 150 kts | 97° |
| 2026-05-07 21:14 | 38.28907 | -0.60808 | 718 ft | 147 kts | 99° |
| 2026-05-07 21:15 | 38.28732 | -0.59527 | 510 ft | 147 kts | 100° |
| 2026-05-07 21:15 | 38.28555 | -0.58252 | 302 ft | 147 kts | 99° |
| 2026-05-07 21:15 | 38.28375 | -0.56969 | 146 ft | 142 kts | 99° |
| 2026-05-07 21:15 | 38.28272 | -0.56206 | 117 ft | 115 kts | 100° |
| 2026-05-07 21:16 | 38.28174 | -0.55475 | 91 ft | 66 kts | 101° |
| 2026-05-07 21:16 | 38.28122 | -0.55130 | 73 ft | 26 kts | 98° |
| 2026-05-07 21:16 | 38.28148 | -0.54886 | 71 ft | 30 kts | 72° |
| 2026-05-07 21:16 | 38.28202 | -0.54731 | 64 ft | 12 kts | 34° |
| 2026-05-07 21:17 | 38.28244 | -0.54748 | 63 ft | 4 kts | 290° |
| 2026-05-07 21:17 | 38.28252 | -0.54794 | 69 ft | 8 kts | 281° |
| 2026-05-07 21:17 | 38.28253 | -0.54796 | 68 ft | 0 kts | 277° |
| 2026-05-07 21:17 | 38.28253 | -0.54795 | 68 ft | 0 kts | 277° |
| 2026-05-07 21:18 | 38.28252 | -0.54796 | 68 ft | 0 kts | 270° |